x

Big Carlos Pass, Fl (bgcf1) Weather Station

1:54am - Thu 27th Nov 2014 All times are EST. -5 hours from GMT.

  • Wind
    8mph, 10mph gusts
  • Air Temp 55°f
  • Sea Pressure 1023.2mb
  • Big Carlos Pass, Fl
  • Big Carlos Pass, Fl

More Historic Weather Station data

Upgrade to MSW Pro to gain access to the past 30 days of data for over 8000 Wavebouys and Weather Stations around the globe.

Join Pro

Comparision Forecast

View Surf forecast
   
Thu 11/27 1:54am 8 10 mph 1023.2mb 55f
1:48am 8 10 mph 1023.2mb 55f
12:54am 13 17 mph 1023.5mb 56f
12:48am 13 16 mph 1023.4mb 56f
Wed 11/26 11:54pm 10 14 mph 1023.8mb 57f
11:48pm 9 13 mph 1023.8mb 57f
10:54pm 7 9 mph 1023.6mb 57f
10:48pm 7 9 mph 1023.6mb 57f
9:54pm 8 13 mph 1023.4mb 58f
9:48pm 11 13 mph 1023.3mb 58f
8:54pm 11 14 mph 1022.9mb 59f
8:48pm 11 14 mph 1022.9mb 59f
7:54pm 14 16 mph 1022.1mb 60f
7:48pm 14 16 mph 1022.1mb 61f
6:54pm 10 13 mph 1022.1mb 61f
6:48pm 11 14 mph 1022.1mb 61f
5:54pm 15 18 mph 1021.5mb 62f
5:48pm 15 20 mph 1021.5mb 62f
4:54pm 11 13 mph 1021.4mb 62f
4:48pm 14 18 mph 1021.3mb 62f
3:54pm 20 26 mph 1020.5mb 62f
3:48pm 18 22 mph 1020.6mb 62f
2:54pm 18 23 mph 1020.6mb 62f
2:48pm 18 24 mph 1020.5mb 62f
1:54pm 15 22 mph 1020.4mb 64f
1:48pm 14 18 mph 1020.4mb 64f
12:54pm 14 18 mph 1020.5mb 63f
12:48pm 17 21 mph 1020.6mb 62f
11:54am 21 28 mph 1020.6mb 63f
11:48am 18 28 mph 1020.5mb 64f
10:54am 22 29 mph 1020.3mb 63f
10:48am 21 25 mph 1020.7mb 63f
9:54am 14 20 mph 1020.7mb 63f
9:48am 16 22 mph 1020.5mb 63f
8:54am 14 20 mph 1019.2mb 63f
8:48am 11 15 mph 1019.2mb 63f
7:54am 15 21 mph 1017.2mb 63f
7:48am 16 22 mph 1017mb 63f
6:54am 22 28 mph 1016.6mb 64f
6:48am 22 31 mph 1016.5mb 64f
5:54am 15 25 mph 1015mb 68f
5:48am 18 26 mph 1014.7mb 68f
4:54am 8 11 mph 1013.4mb 73f
4:48am 10 13 mph 1013.4mb 73f
3:54am 17 24 mph 1012.8mb 73f
3:48am 17 23 mph 1012.8mb 74f
2:54am 26 30 mph 1012.7mb 72f
2:48am 23 29 mph 1012.6mb 73f
1:54am 16 21 mph 1012.6mb 73f
1:48am 20 25 mph 1012.6mb 73f
12:54am 14 16 mph 1012.9mb 73f
12:48am 11 15 mph 1012.9mb 74f
Tue 11/25 11:54pm 13 18 mph 1012.5mb 79f
11:48pm 10 13 mph 1012.5mb 79f
10:54pm 9 11 mph 1013mb 78f
10:48pm 9 11 mph 1013.2mb 78f
9:54pm 10 16 mph 1013.5mb 79f
9:48pm 9 11 mph 1013.6mb 79f
8:54pm 8 11 mph 1013.7mb 80f
8:48pm 9 13 mph 1013.7mb 79f
7:54pm 11 14 mph 1013.8mb 78f
7:48pm 13 16 mph 1013.7mb 78f
6:54pm 11 16 mph 1013.7mb 77f
6:48pm 15 20 mph 1013.5mb 77f
5:54pm 14 17 mph 1013.5mb 77f
5:48pm 14 21 mph 1013.4mb 77f
4:54pm 16 22 mph 1013mb 77f
4:48pm 17 22 mph 1012.9mb 78f
3:54pm 18 23 mph 1012.6mb 79f
3:48pm 18 23 mph 1012.6mb 79f
2:54pm 17 22 mph 1012.7mb 80f
2:48pm 17 22 mph 1012.7mb 79f
1:54pm 16 22 mph 1012.9mb 80f
1:48pm 15 21 mph 1013mb 80f
12:54pm 17 22 mph 1014mb 79f
12:48pm 16 21 mph 1014mb 79f
11:54am 16 21 mph 1014.9mb 80f
11:48am 15 20 mph 1014.9mb 80f
10:54am 13 16 mph 1016.1mb 80f
10:48am 11 15 mph 1016.1mb 80f
9:54am 11 15 mph 1016.1mb 81f
9:48am 10 15 mph 1016.1mb 81f
8:54am 9 11 mph 1016.3mb 79f
8:48am 9 13 mph 1016.2mb 79f
7:54am 9 14 mph 1015.9mb 78f
7:48am 9 13 mph 1015.9mb 78f
6:54am 7 11 mph 1015.9mb 78f
6:48am 6 8 mph 1016mb 78f
5:54am 7 9 mph 1015.7mb 78f
5:48am 7 9 mph 1015.7mb 78f
4:54am 6 8 mph 1015.4mb 78f
4:48am 6 7 mph 1015.4mb 78f
3:54am 6 9 mph 1015.5mb 78f
3:48am 7 10 mph 1015.4mb 78f
2:54am 6 8 mph 1015.6mb 78f
2:48am 5 7 mph 1015.7mb 78f
1:54am 5 7 mph 1016.2mb 77f
1:48am 5 6 mph 1016.3mb 77f
12:54am 8 9 mph 1016.6mb 78f
12:48am 8 10 mph 1016.5mb 78f
Mon 11/24 11:54pm 5 6 mph 1017mb 77f
11:48pm 5 6 mph 1017mb 77f
10:54pm 6
mph
1017.1mb 77f
10:48pm 5 7 mph 1017.2mb 77f
9:54pm 7 8 mph 1016.9mb 77f
9:48pm 6 7 mph 1016.9mb 77f
8:54pm 5
mph
1016.7mb 76f
8:48pm 3 5 mph 1016.7mb 76f
7:54pm 6 8 mph 1016.4mb 76f
7:48pm 7 9 mph 1016.3mb 76f
6:54pm 7 9 mph 1015.6mb 76f
6:48pm 8 9 mph 1015.5mb 76f
5:54pm 10 14 mph 1015mb 76f
5:48pm 10 13 mph 1015mb 76f
4:54pm 9 13 mph 1014.9mb 77f
4:48pm 9 13 mph 1014.8mb 77f
3:54pm 9 13 mph 1014.8mb 77f
3:48pm 10 13 mph 1014.7mb 77f
2:54pm 11 15 mph 1014.5mb 77f
2:48pm 11 15 mph 1014.5mb 77f
1:54pm 11 15 mph 1014.2mb 77f
1:48pm 11 15 mph 1014.2mb 77f
12:54pm 14 16 mph 1014.5mb 77f
12:48pm 14 17 mph 1014.7mb 77f
11:54am 11 15 mph 1015.8mb 78f
11:48am 14 17 mph 1015.8mb 77f
10:54am 13 16 mph 1016.4mb 77f
10:48am 13 16 mph 1016.5mb 78f
9:54am 13 17 mph 1016.4mb 77f
9:48am 14 16 mph 1016.3mb 77f
8:54am 13 15 mph 1016mb 77f
8:48am 13 16 mph 1016mb 77f
7:54am 13 18 mph 1015.6mb 75f
7:48am 11 15 mph 1015.5mb 75f